Time;durP1;ratioP1;P1;durP2;ratioP2;P2;SDS_P1;SDS_P2;PMS_P1;PMS_P2;Temp;Humidity;BMP_temperature;BMP_pressure;BME280_temperature;BME280_humidity;BME280_pressure;Samples;Min_cycle;Max_cycle;Signal;HPM_P1;HPM_P2
2022/12/15 00:38:50;;;;;;;0.20;0.20;;;-4.80;99.90;-6.90;95517.00;;;;5080895;28;20278;-74
2022/12/15 00:41:18;;;;;;;0.20;0.20;;;-4.80;99.90;-6.80;95512.00;;;;5080555;28;20323;-74
2022/12/15 00:43:47;;;;;;;0.20;0.20;;;-4.80;99.90;-6.60;95524.00;;;;5083168;28;20212;-72
2022/12/15 00:49:01;;;;;;;0.20;0.20;;;-4.50;99.90;-6.60;95540.00;;;;5082574;28;20220;-75
2022/12/15 01:21:54;;;;;;;0.20;0.20;;;-5.30;99.90;-7.50;95577.00;;;;5068856;28;20205;-74
2022/12/15 01:24:24;;;;;;;0.20;0.20;;;-5.40;99.90;-7.50;95556.00;;;;5085722;28;20200;-73
2022/12/15 01:26:52;;;;;;;0.20;0.20;;;-5.40;99.90;-7.60;95550.00;;;;5085490;28;20746;-71
2022/12/15 01:29:20;;;;;;;0.20;0.20;;;-5.60;99.90;-7.80;95560.00;;;;5078530;28;20221;-73
2022/12/15 01:31:48;;;;;;;0.20;0.20;;;-5.70;99.90;-8.00;95529.00;;;;5076821;28;20194;-73
2022/12/15 01:34:21;;;;;;;0.30;0.30;;;-6.00;99.90;-7.90;95553.00;;;;5081723;28;20193;-73
2022/12/15 01:36:49;;;;;;;0.30;0.30;;;-5.90;99.90;-7.90;95529.00;;;;5086177;28;20193;-73
2022/12/15 01:39:17;;;;;;;0.30;0.30;;;-5.80;99.90;-7.70;95546.00;;;;5080764;28;20221;-74
2022/12/15 01:41:46;;;;;;;0.20;0.20;;;-5.70;99.90;-7.50;95546.00;;;;5080993;28;20201;-74
2022/12/15 01:44:18;;;;;;;0.20;0.20;;;-5.50;99.90;-7.30;95560.00;;;;5085457;28;20209;-72
2022/12/15 01:46:49;;;;;;;0.20;0.20;;;-5.40;99.90;-7.20;95561.00;;;;5082018;28;20637;-74
2022/12/15 01:49:25;;;;;;;0.20;0.20;;;-5.30;99.90;-7.30;95555.00;;;;5083509;28;20216;-76
2022/12/15 01:52:00;;;;;;;0.20;0.20;;;-5.40;99.90;-7.40;95563.00;;;;5077081;28;20685;-73
2022/12/15 01:54:35;;;;;;;0.25;0.25;;;-5.40;99.90;-7.70;95562.00;;;;5076462;28;20810;-73
2022/12/15 01:57:08;;;;;;;0.20;0.20;;;-5.50;99.90;-7.70;95570.00;;;;5079723;28;20263;-73
2022/12/15 01:59:45;;;;;;;0.20;0.20;;;-5.50;99.90;-7.70;95562.00;;;;5085570;28;20221;-73
2022/12/15 02:02:15;;;;;;;0.30;0.30;;;-5.60;99.90;-7.70;95558.00;;;;5080927;28;20201;-73
2022/12/15 02:04:44;;;;;;;0.20;0.20;;;-5.60;99.90;-7.60;95564.00;;;;5081582;28;20662;-73
2022/12/15 02:07:16;;;;;;;0.20;0.20;;;-5.50;99.90;-7.40;95579.00;;;;5076411;28;20201;-73
2022/12/15 02:09:48;;;;;;;0.20;0.20;;;-5.30;99.90;-7.40;95606.00;;;;5079498;28;20208;-74
2022/12/15 02:12:33;;;;;;;0.30;0.30;;;-5.30;99.90;-7.50;95596.00;;;;5075338;28;20209;-74
2022/12/15 02:15:18;;;;;;;0.20;0.20;;;-5.30;99.90;-7.80;95596.00;;;;5077081;28;20208;-73
2022/12/15 02:18:00;;;;;;;0.20;0.20;;;-5.70;99.90;-7.80;95597.00;;;;5071985;28;20206;-74
2022/12/15 02:20:55;;;;;;;0.20;0.20;;;-5.60;99.90;-7.70;95606.00;;;;5072741;28;20544;-73
2022/12/15 02:24:18;;;;;;;0.20;0.20;;;-5.50;99.90;-7.80;95603.00;;;;5078902;28;20209;-72
2022/12/15 02:27:30;;;;;;;0.20;0.20;;;-5.60;99.90;-7.90;95608.00;;;;5071604;28;20255;-73
2022/12/15 02:30:37;;;;;;;0.25;0.25;;;-5.70;99.90;-7.80;95615.00;;;;5077072;28;20633;-76
2022/12/15 02:33:21;;;;;;;0.28;0.28;;;-5.70;99.90;-7.70;95605.00;;;;5076753;28;20205;-73
2022/12/15 02:35:59;;;;;;;0.20;0.20;;;-5.60;99.90;-7.60;95652.00;;;;5076209;28;20193;-72
2022/12/15 02:38:31;;;;;;;0.20;0.20;;;-5.50;99.90;-7.40;95519.00;;;;5073943;28;20220;-73
2022/12/15 02:41:01;;;;;;;0.28;0.28;;;-5.30;99.90;-7.30;95538.00;;;;5069778;28;20201;-73
2022/12/15 02:43:33;;;;;;;0.22;0.22;;;-5.20;99.90;-7.30;95624.00;;;;5067053;28;20242;-73
2022/12/15 02:46:22;;;;;;;0.30;0.30;;;-5.20;99.90;-7.40;95640.00;;;;5074142;28;20186;-74
2022/12/15 02:49:07;;;;;;;0.20;0.20;;;-5.30;99.90;-7.40;95645.00;;;;5084808;28;20225;-75
2022/12/15 02:51:54;;;;;;;0.20;0.20;;;-5.30;99.90;-7.50;95644.00;;;;5071441;28;20569;-73
2022/12/15 02:54:43;;;;;;;0.30;0.30;;;-5.30;99.90;-7.40;95632.00;;;;5075666;28;20193;-73
2022/12/15 02:57:22;;;;;;;0.30;0.30;;;-5.30;99.90;-7.50;95636.00;;;;5077227;28;20259;-73
2022/12/15 02:59:57;;;;;;;0.20;0.20;;;-5.30;99.90;-7.40;95654.00;;;;5069319;28;20217;-72
2022/12/15 03:02:33;;;;;;;0.20;0.20;;;-5.30;99.90;-7.50;95531.00;;;;5092153;28;20201;-74
2022/12/15 03:05:01;;;;;;;0.30;0.30;;;-5.40;99.90;-7.50;95661.00;;;;5080273;28;20189;-76
2022/12/15 03:07:29;;;;;;;0.20;0.20;;;-5.40;99.90;-7.50;95658.00;;;;5076960;28;20201;-74
2022/12/15 03:10:02;;;;;;;0.22;0.22;;;-5.40;99.90;-7.50;95670.00;;;;5079918;28;20283;-74
2022/12/15 03:12:30;;;;;;;0.20;0.20;;;-5.40;99.90;-7.60;95667.00;;;;5075251;28;20194;-73
2022/12/15 03:14:59;;;;;;;0.20;0.20;;;-5.50;99.90;-7.40;95657.00;;;;5075626;28;20198;-73
2022/12/15 03:17:28;;;;;;;0.20;0.20;;;-5.40;99.90;-7.30;95676.00;;;;5080073;28;20258;-73
2022/12/15 03:19:56;;;;;;;0.20;0.20;;;-5.20;99.90;-7.30;95673.00;;;;5076522;28;20270;-73
2022/12/15 03:22:24;;;;;;;0.20;0.20;;;-5.30;99.90;-7.40;95677.00;;;;5078056;28;20554;-74
2022/12/15 03:24:52;;;;;;;0.20;0.20;;;-5.30;99.90;-7.40;95681.00;;;;5076389;28;20205;-73
2022/12/15 03:27:20;;;;;;;0.20;0.20;;;-5.30;99.90;-7.40;95668.00;;;;5080534;28;20255;-74
2022/12/15 03:29:48;;;;;;;0.30;0.30;;;-5.30;99.90;-7.40;95679.00;;;;5080861;28;20251;-74
2022/12/15 03:32:17;;;;;;;0.20;0.20;;;-5.30;99.90;-7.30;95669.00;;;;5082010;28;20213;-73
2022/12/15 03:34:46;;;;;;;0.20;0.20;;;-5.20;99.90;-7.10;95677.00;;;;5077699;28;20200;-71
2022/12/15 03:37:14;;;;;;;0.20;0.20;;;-5.10;99.90;-7.10;95676.00;;;;5082853;28;20201;-72
2022/12/15 03:39:42;;;;;;;0.20;0.20;;;-5.00;99.90;-7.10;95669.00;;;;5079522;28;20209;-71
2022/12/15 03:42:11;;;;;;;0.30;0.30;;;-5.10;99.90;-7.20;95657.00;;;;5082936;28;20699;-74
2022/12/15 03:44:39;;;;;;;0.20;0.20;;;-5.10;99.90;-7.10;95672.00;;;;5070519;28;20209;-71
2022/12/15 03:47:07;;;;;;;0.20;0.20;;;-5.10;99.90;-7.00;95701.00;;;;5082999;28;20200;-71
2022/12/15 03:49:35;;;;;;;0.30;0.30;;;-5.10;99.90;-7.00;95686.00;;;;5076343;28;20395;-71
2022/12/15 03:52:04;;;;;;;0.20;0.20;;;-5.00;99.90;-7.00;95698.00;;;;5077258;28;20671;-73
2022/12/15 03:54:33;;;;;;;0.30;0.30;;;-5.10;99.90;-7.10;95699.00;;;;5081055;28;20577;-71
2022/12/15 03:57:01;;;;;;;0.20;0.20;;;-5.00;99.90;-7.00;95698.00;;;;5081595;28;20193;-73
2022/12/15 03:59:29;;;;;;;0.30;0.30;;;-5.00;99.90;-7.10;95702.00;;;;5072369;28;20272;-71
2022/12/15 04:01:57;;;;;;;0.25;0.25;;;-5.00;99.90;-7.00;95702.00;;;;5085284;28;20208;-73
2022/12/15 04:04:25;;;;;;;0.20;0.20;;;-5.00;99.90;-7.00;95719.00;;;;5074331;28;20201;-71
2022/12/15 04:06:53;;;;;;;0.20;0.20;;;-5.00;99.90;-6.90;95718.00;;;;5084716;28;20697;-71
2022/12/15 04:09:23;;;;;;;0.25;0.25;;;-4.90;99.90;-6.90;95719.00;;;;5079565;28;20295;-70
2022/12/15 04:11:51;;;;;;;0.20;0.20;;;-4.90;99.90;-6.90;95726.00;;;;5083978;28;20270;-71
2022/12/15 04:14:19;;;;;;;0.20;0.20;;;-4.90;99.90;-6.80;95729.00;;;;5073157;28;20193;-73
2022/12/15 04:16:47;;;;;;;0.20;0.20;;;-4.80;99.90;-6.80;95738.00;;;;5079751;28;20205;-71
2022/12/15 04:22:03;;;;;;;0.30;0.30;;;-4.80;99.90;-6.80;95739.00;;;;5068862;28;20201;-76
2022/12/15 05:34:01;;;;;;;0.20;0.20;;;-5.40;99.90;-7.60;95804.00;;;;5064759;28;20208;-74
2022/12/15 05:36:33;;;;;;;0.30;0.30;;;-5.50;99.90;-7.60;95789.00;;;;5073351;28;20240;-73
2022/12/15 05:39:01;;;;;;;0.20;0.20;;;-5.50;99.90;-7.60;95787.00;;;;5076568;28;20218;-74
2022/12/15 05:41:30;;;;;;;0.20;0.20;;;-5.60;99.90;-7.50;95794.00;;;;5071084;28;20202;-74
2022/12/15 05:43:59;;;;;;;0.30;0.30;;;-5.50;99.90;-7.40;95803.00;;;;5071184;28;20197;-75
2022/12/15 05:46:29;;;;;;;0.30;0.30;;;-5.40;99.90;-7.40;95810.00;;;;5076723;28;20212;-73
2022/12/15 05:48:57;;;;;;;0.25;0.25;;;-5.40;99.90;-7.40;95813.00;;;;5096419;28;20253;-75
2022/12/15 05:51:26;;;;;;;0.20;0.20;;;-5.40;99.90;-7.40;95789.00;;;;5093578;28;20270;-73
2022/12/15 05:53:55;;;;;;;0.30;0.30;;;-5.30;99.90;-7.50;95801.00;;;;5082516;28;20197;-73
2022/12/15 05:56:25;;;;;;;0.20;0.20;;;-5.40;99.90;-7.80;95815.00;;;;5082632;28;20717;-73
2022/12/15 05:58:56;;;;;;;0.20;0.20;;;-5.30;99.90;-7.40;95772.00;;;;5083491;28;20240;-73
2022/12/15 06:01:29;;;;;;;0.30;0.30;;;-5.30;99.90;-7.40;95812.00;;;;5077525;28;20201;-72
2022/12/15 06:04:00;;;;;;;0.20;0.20;;;-5.20;99.90;-7.40;95826.00;;;;5074676;28;20194;-73
2022/12/15 06:06:29;;;;;;;0.20;0.20;;;-5.30;99.90;-7.40;95838.00;;;;5076599;28;20202;-73
2022/12/15 06:08:58;;;;;;;0.28;0.28;;;-5.30;99.90;-7.30;95819.00;;;;5080102;28;20295;-72
2022/12/15 06:11:26;;;;;;;0.20;0.20;;;-5.20;99.90;-7.40;95844.00;;;;5084138;28;20739;-73
2022/12/15 06:13:56;;;;;;;0.20;0.20;;;-5.30;99.90;-7.40;95835.00;;;;5080182;28;20330;-73
2022/12/15 06:16:28;;;;;;;0.25;0.25;;;-5.30;99.90;-7.40;95828.00;;;;5085687;28;20198;-73
2022/12/15 06:18:59;;;;;;;0.20;0.20;;;-5.40;99.90;-7.40;95833.00;;;;5075141;28;20278;-73
2022/12/15 06:21:30;;;;;;;0.20;0.20;;;-5.40;99.90;-7.30;95865.00;;;;5081775;28;20209;-74
2022/12/15 06:23:59;;;;;;;0.25;0.25;;;-5.30;99.90;-7.30;95846.00;;;;5082159;28;20234;-73
2022/12/15 06:26:31;;;;;;;0.20;0.20;;;-5.30;99.90;-7.30;95857.00;;;;5071332;28;20196;-74
2022/12/15 06:29:01;;;;;;;0.20;0.20;;;-5.30;99.90;-7.30;95852.00;;;;5072810;28;20247;-73
2022/12/15 06:31:32;;;;;;;0.22;0.22;;;-5.20;99.90;-7.10;95853.00;;;;5072858;28;20250;-74
2022/12/15 06:34:04;;;;;;;0.20;0.20;;;-5.20;99.90;-7.10;95859.00;;;;5074590;28;20616;-73
2022/12/15 06:36:33;;;;;;;0.20;0.20;;;-5.20;99.90;-7.00;95862.00;;;;5077556;28;20204;-73
2022/12/15 06:39:04;;;;;;;0.20;0.20;;;-5.10;99.90;-7.00;95886.00;;;;5078478;28;20275;-73
2022/12/15 06:41:32;;;;;;;0.20;0.20;;;-5.10;99.90;-7.00;95884.00;;;;5076345;28;20197;-73
2022/12/15 06:44:01;;;;;;;0.20;0.20;;;-5.10;99.90;-6.90;95866.00;;;;5075238;28;20255;-72
2022/12/15 06:46:33;;;;;;;0.20;0.20;;;-5.00;99.90;-7.00;95882.00;;;;5073764;28;20673;-73
2022/12/15 06:49:02;;;;;;;0.20;0.20;;;-5.10;99.90;-7.10;95853.00;;;;5083046;28;20292;-73
2022/12/15 06:51:31;;;;;;;0.20;0.20;;;-5.10;99.90;-7.10;95868.00;;;;5079282;28;20204;-73
2022/12/15 06:54:00;;;;;;;0.20;0.20;;;-5.00;99.90;-7.00;95866.00;;;;5082921;28;20197;-73
2022/12/15 06:56:31;;;;;;;0.20;0.20;;;-5.00;99.90;-6.90;95876.00;;;;5077381;28;20184;-73
2022/12/15 06:59:03;;;;;;;0.20;0.20;;;-4.90;99.90;-6.90;95905.00;;;;5087360;28;20308;-71
2022/12/15 07:01:33;;;;;;;0.20;0.20;;;-4.90;99.90;-6.70;95879.00;;;;5083298;28;20193;-71
2022/12/15 07:04:04;;;;;;;0.20;0.20;;;-4.70;99.90;-6.80;95887.00;;;;5085429;28;20201;-74
2022/12/15 07:06:36;;;;;;;0.20;0.20;;;-4.70;99.90;-6.70;95874.00;;;;5077644;28;20666;-76
2022/12/15 07:09:09;;;;;;;0.20;0.20;;;-4.60;99.90;-6.70;95890.00;;;;5087274;28;20227;-73
2022/12/15 07:11:37;;;;;;;0.20;0.20;;;-4.60;99.90;-6.70;95892.00;;;;5085066;28;20223;-71
2022/12/15 07:14:05;;;;;;;0.20;0.20;;;-4.50;99.90;-6.80;95904.00;;;;5075309;28;20221;-71
2022/12/15 07:16:34;;;;;;;0.20;0.20;;;-4.60;99.90;-6.70;95892.00;;;;5082876;28;20197;-72
2022/12/15 07:19:03;;;;;;;0.20;0.20;;;-4.50;99.90;-6.80;95905.00;;;;5071951;28;20221;-73
2022/12/15 07:21:32;;;;;;;0.20;0.20;;;-4.60;99.90;-6.90;95913.00;;;;5083601;28;20193;-72
2022/12/15 07:24:00;;;;;;;0.20;0.20;;;-4.70;99.90;-6.70;95905.00;;;;5072587;28;20205;-76
2022/12/15 07:26:30;;;;;;;0.20;0.20;;;-4.60;99.90;-6.70;95901.00;;;;5077427;28;20204;-74
2022/12/15 07:28:58;;;;;;;0.20;0.20;;;-4.60;99.90;-6.70;95911.00;;;;5078275;28;20218;-75
2022/12/15 07:31:26;;;;;;;0.22;0.22;;;-4.50;99.90;-6.70;95895.00;;;;5070083;28;20190;-71
2022/12/15 07:33:57;;;;;;;0.20;0.20;;;-4.50;99.90;-6.70;95910.00;;;;5078490;28;20273;-74
2022/12/15 07:36:26;;;;;;;0.20;0.20;;;-4.50;99.90;-6.70;95892.00;;;;5075416;28;20623;-72
2022/12/15 07:39:01;;;;;;;0.30;0.30;;;-4.60;99.90;-6.70;95906.00;;;;5072525;28;20213;-73
2022/12/15 07:41:30;;;;;;;0.30;0.30;;;-4.70;99.90;-6.90;95888.00;;;;5076496;28;20600;-71
2022/12/15 07:43:58;;;;;;;0.20;0.20;;;-4.90;99.90;-7.00;95884.00;;;;5080805;28;20201;-71
2022/12/15 07:46:27;;;;;;;0.20;0.20;;;-4.90;99.90;-6.90;95916.00;;;;5088962;28;20193;-73
2022/12/15 07:48:57;;;;;;;0.20;0.20;;;-4.80;99.90;-6.90;95912.00;;;;5082957;28;20266;-73
2022/12/15 07:51:26;;;;;;;0.20;0.20;;;-4.90;99.90;-6.80;95924.00;;;;5084860;28;20296;-71
2022/12/15 07:53:54;;;;;;;0.20;0.20;;;-4.80;99.90;-6.80;95915.00;;;;5076439;28;20213;-71
2022/12/15 07:56:22;;;;;;;0.20;0.20;;;-4.90;99.90;-6.80;95939.00;;;;5073832;28;20564;-71
2022/12/15 07:58:52;;;;;;;0.20;0.20;;;-4.90;99.90;-6.70;95937.00;;;;5074149;28;20603;-74
2022/12/15 08:01:20;;;;;;;0.20;0.20;;;-4.90;99.90;-6.70;95936.00;;;;5078698;28;20197;-73
2022/12/15 08:03:48;;;;;;;0.20;0.20;;;-4.90;99.90;-6.60;95933.00;;;;5096354;28;20595;-72
2022/12/15 08:06:18;;;;;;;0.25;0.25;;;-4.70;99.90;-6.50;95953.00;;;;5079690;28;20213;-71
2022/12/15 08:08:46;;;;;;;0.20;0.20;;;-4.60;99.90;-6.40;95951.00;;;;5070782;28;20251;-72
2022/12/15 08:11:20;;;;;;;0.30;0.30;;;-4.50;99.90;-6.40;95958.00;;;;5073582;28;20198;-71
2022/12/15 08:13:48;;;;;;;0.20;0.20;;;-4.50;99.90;-6.20;95890.00;;;;5071384;28;20225;-71
2022/12/15 08:16:30;;;;;;;0.20;0.20;;;-4.40;99.90;-6.20;95967.00;;;;5082311;28;20291;-71
2022/12/15 08:18:58;;;;;;;0.20;0.20;;;-4.30;99.90;-6.20;95963.00;;;;5074637;28;20229;-74
2022/12/15 08:21:30;;;;;;;0.20;0.20;;;-4.20;99.90;-6.10;95980.00;;;;5071656;28;20193;-72
2022/12/15 08:23:59;;;;;;;0.20;0.20;;;-4.10;99.90;-6.10;95965.00;;;;5079551;28;20198;-74
2022/12/15 08:26:28;;;;;;;0.20;0.20;;;-4.20;99.90;-6.00;95986.00;;;;5071446;28;20557;-72
2022/12/15 08:29:03;;;;;;;0.20;0.20;;;-4.10;99.90;-6.00;95975.00;;;;5082878;28;20213;-72
2022/12/15 08:31:52;;;;;;;0.20;0.20;;;-4.10;99.90;-5.80;95966.00;;;;5074410;28;20259;-74
2022/12/15 08:34:21;;;;;;;0.30;0.30;;;-3.90;99.90;-5.60;95965.00;;;;5086163;28;20725;-75
2022/12/15 08:36:51;;;;;;;0.20;0.20;;;-3.70;99.90;-5.50;95988.00;;;;5072817;28;20251;-74
2022/12/15 08:39:19;;;;;;;0.20;0.20;;;-3.70;99.90;-5.50;95971.00;;;;5081924;28;20209;-73
2022/12/15 08:41:47;;;;;;;0.20;0.20;;;-3.70;99.90;-5.50;95979.00;;;;5074215;28;20406;-73
2022/12/15 08:44:16;;;;;;;0.20;0.20;;;-3.60;99.90;-5.50;95984.00;;;;5073862;28;20210;-74
2022/12/15 08:46:44;;;;;;;0.20;0.20;;;-3.60;99.90;-5.50;95966.00;;;;5072332;28;20220;-74
2022/12/15 08:49:12;;;;;;;0.20;0.20;;;-3.70;99.90;-5.50;95980.00;;;;5073282;28;20213;-73
2022/12/15 08:51:50;;;;;;;0.20;0.20;;;-3.70;99.90;-5.40;95961.00;;;;5075609;28;20259;-73
2022/12/15 08:54:20;;;;;;;0.20;0.20;;;-3.60;99.90;-5.40;95958.00;;;;5080349;28;20217;-74
2022/12/15 08:56:48;;;;;;;0.20;0.20;;;-3.50;99.90;-5.20;95988.00;;;;5070707;28;20698;-73
2022/12/15 08:59:17;;;;;;;0.20;0.20;;;-3.40;99.90;-5.20;95984.00;;;;5081941;28;20216;-74
2022/12/15 09:01:45;;;;;;;0.20;0.20;;;-3.40;99.90;-5.20;95980.00;;;;5076847;28;20202;-73
2022/12/15 09:04:14;;;;;;;0.20;0.20;;;-3.40;99.90;-5.10;95981.00;;;;5082778;28;20211;-74
2022/12/15 09:06:43;;;;;;;0.20;0.20;;;-3.30;99.90;-5.20;96014.00;;;;5076625;28;20280;-74
2022/12/15 09:09:19;;;;;;;0.20;0.20;;;-3.40;99.90;-5.10;96001.00;;;;5080909;28;20654;-74
2022/12/15 09:11:47;;;;;;;0.20;0.20;;;-3.30;99.90;-5.10;95997.00;;;;5079112;28;20185;-73
2022/12/15 09:14:16;;;;;;;0.20;0.20;;;-3.30;99.90;-5.20;95993.00;;;;5074472;28;20270;-73
2022/12/15 09:16:44;;;;;;;0.20;0.20;;;-3.30;99.90;-5.00;96011.00;;;;5079144;28;20194;-73
2022/12/15 09:19:18;;;;;;;0.20;0.20;;;-3.20;99.90;-5.00;96024.00;;;;5081268;28;20229;-73
2022/12/15 09:21:47;;;;;;;0.20;0.20;;;-3.20;99.90;-4.90;96021.00;;;;5078825;28;20198;-74
2022/12/15 09:24:15;;;;;;;0.20;0.20;;;-3.10;99.90;-4.90;96017.00;;;;5069725;28;20220;-74
2022/12/15 09:26:57;;;;;;;0.10;0.10;;;-3.10;99.90;-4.70;96018.00;;;;5079972;28;20205;-73
2022/12/15 09:29:25;;;;;;;0.20;0.20;;;-3.00;99.90;-4.70;96021.00;;;;5081952;28;20209;-74
2022/12/15 09:31:53;;;;;;;0.20;0.20;;;-2.90;99.90;-4.60;96020.00;;;;5072897;28;20201;-76
2022/12/15 09:34:21;;;;;;;0.20;0.20;;;-2.80;99.90;-4.50;96024.00;;;;5081418;28;20227;-73
2022/12/15 09:36:49;;;;;;;0.20;0.20;;;-2.70;99.90;-4.40;96024.00;;;;5075312;28;20200;-73
2022/12/15 09:39:18;;;;;;;0.20;0.20;;;-2.70;99.90;-4.30;96036.00;;;;5076701;28;20221;-73
2022/12/15 09:41:54;;;;;;;0.20;0.20;;;-2.60;99.90;-4.30;96046.00;;;;5080988;28;20205;-73
2022/12/15 09:44:26;;;;;;;0.20;0.20;;;-2.60;99.90;-4.20;96047.00;;;;5086498;28;20591;-73
2022/12/15 09:47:16;;;;;;;0.20;0.20;;;-2.50;99.90;-4.10;96050.00;;;;5086234;28;20217;-73
2022/12/15 09:49:54;;;;;;;0.10;0.10;;;-2.40;99.90;-4.10;96040.00;;;;5074470;28;20213;-73
2022/12/15 09:52:28;;;;;;;0.20;0.20;;;-2.40;99.90;-4.10;96056.00;;;;5081071;28;20185;-73
2022/12/15 09:55:00;;;;;;;0.20;0.20;;;-2.40;99.90;-4.10;96054.00;;;;5081814;28;20705;-73
2022/12/15 09:57:40;;;;;;;0.20;0.20;;;-2.40;99.90;-4.10;96034.00;;;;5076584;28;20204;-73
2022/12/15 10:00:20;;;;;;;0.20;0.20;;;-2.40;99.90;-4.00;96036.00;;;;5083567;28;20205;-73
2022/12/15 10:03:28;;;;;;;0.10;0.10;;;-2.30;99.90;-4.00;96040.00;;;;5079477;28;20189;-73
2022/12/15 10:06:14;;;;;;;0.20;0.20;;;-2.30;99.90;-4.00;96049.00;;;;5074115;28;20256;-73
2022/12/15 10:08:53;;;;;;;0.15;0.15;;;-2.30;99.90;-4.00;96042.00;;;;5069063;28;20763;-73
2022/12/15 10:11:44;;;;;;;0.20;0.20;;;-2.30;99.90;-4.00;96047.00;;;;5086588;28;20205;-72
2022/12/15 10:14:30;;;;;;;0.10;0.10;;;-2.40;99.90;-4.00;96050.00;;;;5079686;28;20213;-70
2022/12/15 10:17:11;;;;;;;0.20;0.20;;;-2.30;99.90;-3.80;96045.00;;;;5075423;28;20194;-73
2022/12/15 10:19:45;;;;;;;0.20;0.20;;;-2.20;99.90;-3.80;96029.00;;;;5077628;28;20209;-72
2022/12/15 10:22:24;;;;;;;0.20;0.20;;;-2.10;99.90;-3.60;96039.00;;;;5078897;28;20201;-73
2022/12/15 10:24:54;;;;;;;0.20;0.20;;;-1.90;99.90;-3.40;95990.00;;;;5080855;28;20518;-72
2022/12/15 10:28:10;;;;;;;0.20;0.20;;;-1.80;99.90;-3.30;96030.00;;;;5079476;28;20208;-72
2022/12/15 10:30:50;;;;;;;0.10;0.10;;;-1.60;99.90;-3.10;96036.00;;;;5077137;28;20713;-72
2022/12/15 10:33:24;;;;;;;0.10;0.10;;;-1.50;99.90;-3.00;96031.00;;;;5082693;28;20202;-72
2022/12/15 10:35:54;;;;;;;0.20;0.20;;;-1.40;99.90;-2.90;96043.00;;;;5083754;28;20213;-72
2022/12/15 10:38:33;;;;;;;0.10;0.10;;;-1.30;99.90;-2.70;96042.00;;;;5087233;28;20221;-72
2022/12/15 10:41:05;;;;;;;0.10;0.10;;;-1.10;99.90;-2.70;95999.00;;;;5076799;28;20203;-73
2022/12/15 10:43:37;;;;;;;0.20;0.20;;;-1.10;99.90;-2.90;96051.00;;;;5074025;28;20254;-72
2022/12/15 10:46:13;;;;;;;0.10;0.10;;;-1.00;99.90;-2.50;96037.00;;;;5082287;28;20186;-74
2022/12/15 10:48:45;;;;;;;0.10;0.10;;;-0.90;99.90;-2.50;96056.00;;;;5081395;28;20209;-73
2022/12/15 10:51:24;;;;;;;0.17;0.17;;;-0.80;99.90;-2.40;96062.00;;;;5082272;28;20235;-73
2022/12/15 10:54:04;;;;;;;0.10;0.10;;;-0.80;99.90;-2.30;96056.00;;;;5075218;28;20225;-73
2022/12/15 10:56:34;;;;;;;0.20;0.20;;;-0.80;99.90;-2.20;96041.00;;;;5075973;28;20251;-73
2022/12/15 10:59:22;;;;;;;0.20;0.20;;;-0.60;99.90;-2.10;96053.00;;;;5081230;28;20787;-73
2022/12/15 11:01:51;;;;;;;0.10;0.10;;;-0.50;99.90;-2.00;96044.00;;;;5072376;28;20206;-73
2022/12/15 11:04:29;;;;;;;0.10;0.10;;;-0.40;99.90;-2.00;96037.00;;;;5076601;28;20213;-73
2022/12/15 11:06:59;;;;;;;0.10;0.10;;;-0.40;99.90;-1.90;96029.00;;;;5080245;28;20205;-73
2022/12/15 11:09:34;;;;;;;0.10;0.10;;;-0.40;99.90;-2.00;96042.00;;;;5071888;28;20300;-73
2022/12/15 11:15:02;;;;;;;0.20;0.20;;;-0.40;99.90;-1.90;96019.00;;;;5076161;28;20745;-73
2022/12/15 11:17:41;;;;;;;0.20;0.20;;;-0.30;99.90;-1.80;96033.00;;;;5082715;28;20206;-74
2022/12/15 11:20:22;;;;;;;0.13;0.13;;;-0.20;99.90;-1.70;96041.00;;;;5073452;28;20217;-74
2022/12/15 11:22:58;;;;;;;0.10;0.10;;;-0.10;99.90;-1.60;96049.00;;;;5077693;28;20214;-73
2022/12/15 11:25:38;;;;;;;0.10;0.10;;;-0.10;99.90;-1.50;96039.00;;;;5069143;28;20279;-74
2022/12/15 11:28:15;;;;;;;0.10;0.10;;;0.10;99.90;-1.40;96054.00;;;;5086125;28;20201;-73
2022/12/15 11:30:50;;;;;;;0.20;0.20;;;0.10;99.90;-1.30;96036.00;;;;5079530;28;20208;-72
2022/12/15 11:33:19;;;;;;;0.15;0.15;;;0.20;99.90;-1.20;96045.00;;;;5074835;28;20205;-73
2022/12/15 11:36:08;;;;;;;0.13;0.13;;;0.30;99.90;-1.20;96044.00;;;;5072837;28;20778;-73
2022/12/15 11:38:46;;;;;;;0.10;0.10;;;0.30;99.90;-0.90;96051.00;;;;5067549;28;20221;-73
2022/12/15 11:41:36;;;;;;;0.10;0.10;;;0.50;99.90;-0.80;96041.00;;;;5075734;28;20197;-73
2022/12/15 11:44:24;;;;;;;0.10;0.10;;;0.60;99.90;-1.00;96046.00;;;;5071788;28;20194;-73
2022/12/15 11:47:10;;;;;;;0.10;0.10;;;0.70;99.90;-0.50;96028.00;;;;5080149;28;20208;-72
2022/12/15 11:50:15;;;;;;;0.10;0.10;;;0.90;99.90;3.10;96061.00;;;;5072868;28;20215;-73
2022/12/15 11:53:08;;;;;;;0.10;0.10;;;3.60;99.90;7.20;96081.00;;;;5075895;28;20235;-72
2022/12/15 11:55:50;;;;;;;0.10;0.10;;;7.50;99.90;9.50;96092.00;;;;5082331;28;20261;-72
2022/12/15 11:58:54;;;;;;;0.10;0.10;;;9.90;99.90;10.80;96102.00;;;;5080354;28;20224;-72
2022/12/15 12:01:47;;;;;;;0.10;0.10;;;11.70;99.90;12.10;96106.00;;;;5080927;28;20196;-73
2022/12/15 12:04:27;;;;;;;0.10;0.10;;;13.10;99.10;12.90;96098.00;;;;5078682;28;20217;-73
2022/12/15 12:07:08;;;;;;;0.10;0.10;;;14.90;96.90;13.30;96108.00;;;;5075016;28;20697;-73
2022/12/15 12:09:46;;;;;;;0.10;0.10;;;15.60;93.40;13.50;96108.00;;;;5072035;28;20694;-73
2022/12/15 12:12:25;;;;;;;0.10;0.10;;;15.60;91.50;12.80;96097.00;;;;5085782;28;20193;-73
2022/12/15 12:15:15;;;;;;;0.10;0.10;;;16.30;89.70;13.00;96098.00;;;;5080156;28;20213;-73
2022/12/15 12:17:50;;;;;;;0.10;0.10;;;16.30;90.50;13.30;96094.00;;;;5074616;28;20231;-73
2022/12/15 12:20:24;;;;;;;0.10;0.10;;;16.90;87.90;12.60;96087.00;;;;5081299;28;20197;-73
2022/12/15 12:23:03;;;;;;;0.10;0.10;;;16.60;85.70;11.30;96087.00;;;;5082737;28;20196;-74
2022/12/15 12:25:43;;;;;;;0.10;0.10;;;15.40;86.30;12.50;96083.00;;;;5075869;28;20211;-73
2022/12/15 12:28:22;;;;;;;0.10;0.10;;;15.60;89.00;13.00;96079.00;;;;5080711;28;20259;-73
2022/12/15 12:30:51;;;;;;;0.10;0.10;;;16.30;86.20;13.70;96095.00;;;;5077573;28;20197;-73
2022/12/15 12:33:33;;;;;;;0.10;0.10;;;16.80;89.20;13.80;96092.00;;;;5084551;28;20205;-73
2022/12/15 12:36:10;;;;;;;0.10;0.10;;;16.80;85.40;13.60;96076.00;;;;5075148;28;20350;-74
2022/12/15 12:38:45;;;;;;;0.10;0.10;;;16.60;83.30;13.60;96083.00;;;;5088458;28;20289;-73
2022/12/15 12:41:36;;;;;;;0.00;0.00;;;16.50;88.60;13.50;96084.00;;;;5075464;28;20193;-73
2022/12/15 12:44:17;;;;;;;0.03;0.03;;;16.00;89.30;13.40;96064.00;;;;5075362;28;20197;-73
2022/12/15 12:46:51;;;;;;;0.10;0.10;;;15.50;89.90;12.80;96065.00;;;;5078504;28;20198;-73
2022/12/15 12:49:30;;;;;;;0.10;0.10;;;15.50;85.80;12.70;96073.00;;;;5082938;28;20218;-73
2022/12/15 12:52:02;;;;;;;0.10;0.10;;;14.90;89.40;12.30;96070.00;;;;5074385;28;20728;-73
2022/12/15 12:54:47;;;;;;;0.10;0.10;;;14.20;91.50;12.10;96039.00;;;;5069830;28;20253;-73
2022/12/15 12:57:46;;;;;;;0.10;0.10;;;13.70;91.10;11.80;96089.00;;;;5075698;28;20265;-74
2022/12/15 13:00:24;;;;;;;0.00;0.00;;;13.50;91.30;11.90;96104.00;;;;5028974;28;20210;-73
2022/12/15 13:03:19;;;;;;;0.10;0.10;;;13.10;91.50;11.00;96106.00;;;;5067789;28;20524;-74
2022/12/15 13:05:53;;;;;;;0.10;0.10;;;12.10;92.80;9.60;96088.00;;;;5074263;28;20205;-73
2022/12/15 13:08:51;;;;;;;0.00;0.00;;;10.90;92.70;8.50;96042.00;;;;5073692;28;20294;-73
2022/12/15 13:11:55;;;;;;;0.10;0.10;;;9.60;96.20;7.60;96074.00;;;;5073888;28;20198;-75
2022/12/15 13:14:46;;;;;;;0.10;0.10;;;8.60;97.50;7.20;96074.00;;;;5076214;28;20197;-74
2022/12/15 13:17:30;;;;;;;0.10;0.10;;;8.30;97.90;7.90;96098.00;;;;5059725;28;20240;-74
2022/12/15 13:20:30;;;;;;;0.10;0.10;;;8.60;98.80;8.70;96104.00;;;;5071976;28;20205;-74
2022/12/15 13:23:40;;;;;;;0.10;0.10;;;8.60;98.90;8.90;96084.00;;;;5076445;28;20197;-73
2022/12/15 13:26:14;;;;;;;0.10;0.10;;;8.50;98.90;8.80;96118.00;;;;5051981;28;20202;-73
2022/12/15 13:28:49;;;;;;;0.00;0.00;;;8.10;99.10;8.50;96132.00;;;;5083073;28;20231;-73
2022/12/15 13:31:45;;;;;;;0.10;0.10;;;7.80;99.20;8.30;96096.00;;;;5081838;28;20205;-73
2022/12/15 13:34:26;;;;;;;0.10;0.10;;;7.50;99.70;8.20;96116.00;;;;5080463;28;20663;-73
2022/12/15 13:37:01;;;;;;;0.10;0.10;;;7.30;99.90;8.10;96095.00;;;;5078237;28;20469;-73
2022/12/15 13:39:57;;;;;;;0.10;0.10;;;7.10;99.90;7.80;96095.00;;;;5084424;28;20235;-75
2022/12/15 13:42:38;;;;;;;0.10;0.10;;;6.80;99.90;7.60;96089.00;;;;5079092;28;20240;-73
2022/12/15 13:45:46;;;;;;;0.10;0.10;;;6.50;99.90;7.20;96089.00;;;;5088998;28;20197;-73
2022/12/15 13:48:41;;;;;;;0.10;0.10;;;6.20;99.90;6.60;96093.00;;;;5094744;28;20263;-72
2022/12/15 13:51:30;;;;;;;0.10;0.10;;;5.80;99.90;6.00;96102.00;;;;5093381;28;20573;-75
2022/12/15 13:54:11;;;;;;;0.10;0.10;;;5.50;99.90;5.40;96104.00;;;;5073619;28;20476;-72
2022/12/15 13:56:54;;;;;;;0.10;0.10;;;5.10;99.90;4.80;96103.00;;;;5081854;28;20225;-73